Time;durP1;ratioP1;P1;durP2;ratioP2;P2;SDS_P1;SDS_P2;PMS_P1;PMS_P2;Temp;Humidity;BMP_temperature;BMP_pressure;BME280_temperature;BME280_humidity;BME280_pressure;Samples;Min_cycle;Max_cycle;Signal;HPM_P1;HPM_P2
2022/05/28 00:01:06;;;;;;;5.72;1.10;;;8.10;73.90;;;;;;4107989;28;20490;-85
2022/05/28 00:03:28;;;;;;;12.55;1.33;;;8.00;73.90;;;;;;4106166;28;20035;-85
2022/05/28 00:05:49;;;;;;;11.93;1.30;;;8.00;74.00;;;;;;4089148;28;20118;-85
2022/05/28 00:08:10;;;;;;;14.18;1.50;;;8.00;74.10;;;;;;4091551;28;20035;-86
2022/05/28 00:10:33;;;;;;;7.57;1.05;;;8.00;74.00;;;;;;4087460;28;20042;-86
2022/05/28 00:12:34;;;;;;;;;;;8.10;74.10;;;;;;4088734;28;20033;-84
2022/05/28 00:14:36;;;;;;;10.90;0.88;;;8.00;74.10;;;;;;4103388;28;19914;-86
2022/05/28 00:16:37;;;;;;;8.90;1.30;;;8.00;73.90;;;;;;4092566;28;20067;-85
2022/05/28 00:18:40;;;;;;;18.80;1.45;;;8.00;73.90;;;;;;4103666;28;20035;-85
2022/05/28 00:21:01;;;;;;;12.77;1.40;;;7.90;73.80;;;;;;4091187;28;20114;-86
2022/05/28 00:23:23;;;;;;;7.50;1.00;;;8.00;74.00;;;;;;4091487;28;20055;-85
2022/05/28 00:25:24;;;;;;;12.98;1.30;;;7.90;73.90;;;;;;4090317;28;20047;-86
2022/05/28 00:27:45;;;;;;;7.47;1.00;;;7.90;74.00;;;;;;4108404;28;20577;-86
2022/05/28 00:30:12;;;;;;;12.30;1.75;;;7.90;74.00;;;;;;4091088;28;20097;-86
2022/05/28 00:32:13;;;;;;;11.60;1.60;;;7.90;74.20;;;;;;4098343;28;20031;-86
2022/05/28 00:34:34;;;;;;;14.18;1.58;;;7.90;74.30;;;;;;4107091;28;20427;-86
2022/05/28 00:36:55;;;;;;;12.07;1.60;;;7.90;74.30;;;;;;4096178;28;20147;-85
2022/05/28 00:39:18;;;;;;;15.45;1.50;;;7.80;74.30;;;;;;4107475;28;20063;-86
2022/05/28 00:41:39;;;;;;;11.50;1.67;;;7.80;74.40;;;;;;4102882;28;20519;-86
2022/05/28 00:44:04;;;;;;;16.80;1.48;;;7.90;74.40;;;;;;4106263;28;20286;-85
2022/05/28 00:46:27;;;;;;;9.43;1.25;;;7.80;74.60;;;;;;4106756;28;20807;-85
2022/05/28 00:48:51;;;;;;;13.40;1.52;;;7.80;74.60;;;;;;4101146;28;20045;-85
2022/05/28 00:51:32;;;;;;;8.35;1.17;;;7.80;74.60;;;;;;4105098;28;20050;-86
2022/05/28 00:53:56;;;;;;;7.25;1.67;;;7.90;74.70;;;;;;4107215;28;20039;-85
2022/05/28 00:56:17;;;;;;;13.35;1.50;;;7.80;74.60;;;;;;4110921;28;20062;-86
2022/05/28 00:58:37;;;;;;;16.10;1.70;;;7.80;74.70;;;;;;4104550;28;20074;-85
2022/05/28 01:00:59;;;;;;;14.57;1.70;;;7.80;74.70;;;;;;4109623;28;20027;-86
2022/05/28 01:03:09;;;;;;;8.75;1.65;;;7.80;74.90;;;;;;4104723;28;20107;-86
2022/05/28 01:05:39;;;;;;;12.55;2.00;;;7.70;75.00;;;;;;4108607;28;20023;-86
2022/05/28 01:07:46;;;;;;;10.80;1.60;;;7.70;75.10;;;;;;4074692;28;20186;-86
2022/05/28 01:09:58;;;;;;;11.68;1.52;;;7.70;75.00;;;;;;4101879;28;20019;-85
2022/05/28 01:12:17;;;;;;;9.30;1.60;;;7.80;75.30;;;;;;4090378;28;20500;-85
2022/05/28 01:14:27;;;;;;;9.20;1.25;;;7.80;75.20;;;;;;4105235;28;20106;-86
2022/05/28 01:16:31;;;;;;;11.20;1.23;;;7.70;75.20;;;;;;4105887;28;20128;-86
2022/05/28 01:18:43;;;;;;;17.27;1.63;;;7.80;75.20;;;;;;4105775;28;20035;-87
2022/05/28 01:20:51;;;;;;;10.07;1.35;;;7.80;75.30;;;;;;4087788;28;20074;-86
2022/05/28 01:23:13;;;;;;;13.27;1.80;;;7.80;75.50;;;;;;4088395;28;20288;-85
2022/05/28 01:25:38;;;;;;;13.98;1.58;;;7.80;75.50;;;;;;4094110;28;20023;-85
2022/05/28 01:27:46;;;;;;;12.30;1.70;;;7.80;75.70;;;;;;4073704;28;20072;-85
2022/05/28 01:29:51;;;;;;;13.43;1.75;;;7.80;75.70;;;;;;4108803;28;20026;-86
2022/05/28 01:31:54;;;;;;;13.70;2.42;;;7.90;75.80;;;;;;4093004;28;20066;-85
2022/05/28 01:33:57;;;;;;;11.70;1.58;;;7.80;75.80;;;;;;4075881;29;20034;-85
2022/05/28 01:36:00;;;;;;;11.85;2.30;;;7.90;76.00;;;;;;4114248;28;20518;-85
2022/05/28 01:38:03;;;;;;;14.83;1.90;;;7.90;75.90;;;;;;4115619;28;20027;-86
2022/05/28 01:40:06;;;;;;;;;;;8.00;75.80;;;;;;4114573;28;20065;-86
2022/05/28 01:42:09;;;;;;;21.05;2.00;;;7.90;75.80;;;;;;4113959;28;20363;-87
2022/05/28 01:44:12;;;;;;;12.98;1.80;;;8.00;75.50;;;;;;4077933;29;20047;-85
2022/05/28 01:46:19;;;;;;;9.95;1.63;;;8.00;75.40;;;;;;4081072;29;21633;-85
2022/05/28 01:48:21;;;;;;;13.93;2.00;;;7.90;75.30;;;;;;4113695;28;20171;-85
2022/05/28 01:50:45;;;;;;;11.65;2.13;;;8.10;75.40;;;;;;4098578;28;20313;-86
2022/05/28 01:53:08;;;;;;;18.23;2.08;;;8.10;75.10;;;;;;4100095;28;20560;-83
2022/05/28 01:55:32;;;;;;;9.85;1.80;;;8.00;74.80;;;;;;4096309;28;20870;-85
2022/05/28 01:57:53;;;;;;;10.40;2.00;;;8.00;74.70;;;;;;4112823;28;20034;-85
2022/05/28 02:00:14;;;;;;;11.45;2.15;;;8.00;74.50;;;;;;4109798;28;20031;-85
2022/05/28 02:02:35;;;;;;;10.18;1.73;;;8.00;74.40;;;;;;4109532;28;20122;-85
2022/05/28 02:04:56;;;;;;;18.92;2.65;;;8.10;74.30;;;;;;4109408;28;20828;-86
2022/05/28 02:07:18;;;;;;;14.27;1.90;;;8.10;74.20;;;;;;4110512;28;20034;-85
2022/05/28 02:09:46;;;;;;;12.45;1.75;;;8.10;74.10;;;;;;4113168;28;20118;-85
2022/05/28 02:12:26;;;;;;;8.32;1.48;;;8.00;74.00;;;;;;4112442;28;20031;-85
2022/05/28 02:14:35;;;;;;;11.65;1.80;;;8.00;74.00;;;;;;4109897;28;20114;-84
2022/05/28 02:17:00;;;;;;;13.50;2.20;;;8.10;74.10;;;;;;4105140;28;20039;-85
2022/05/28 02:19:06;;;;;;;13.82;1.67;;;8.00;74.20;;;;;;4111313;28;20031;-85
2022/05/28 02:21:08;;;;;;;14.32;1.60;;;8.00;74.10;;;;;;4112384;28;20422;-86
2022/05/28 02:23:22;;;;;;;9.25;1.60;;;8.10;74.10;;;;;;4113073;28;20062;-85
2022/05/28 02:25:29;;;;;;;8.52;1.88;;;8.00;74.10;;;;;;4109993;28;20055;-84
2022/05/28 02:27:32;;;;;;;15.18;2.10;;;8.00;74.20;;;;;;4102507;28;20028;-85
2022/05/28 02:29:33;;;;;;;12.38;2.00;;;8.00;74.20;;;;;;4077842;29;20098;-84
2022/05/28 02:31:35;;;;;;;10.35;1.60;;;8.00;74.20;;;;;;4094510;28;20031;-85
2022/05/28 02:33:35;;;;;;;14.07;1.85;;;8.10;74.30;;;;;;4107850;28;20396;-84
2022/05/28 02:35:39;;;;;;;14.70;1.60;;;8.20;74.30;;;;;;4109938;28;20082;-86
2022/05/28 02:37:40;;;;;;;;;;;8.10;74.30;;;;;;4086667;28;20032;-84
2022/05/28 02:39:40;;;;;;;13.05;1.67;;;8.20;74.20;;;;;;4093718;28;20336;-84
2022/05/28 02:41:41;;;;;;;14.38;1.90;;;8.10;73.90;;;;;;4111885;28;20031;-83
2022/05/28 02:43:42;;;;;;;13.23;1.70;;;8.30;74.00;;;;;;4091710;28;20051;-85
2022/05/28 02:45:43;;;;;;;9.18;1.77;;;8.30;73.90;;;;;;4108840;28;20027;-85
2022/05/28 02:47:44;;;;;;;9.25;1.65;;;8.20;73.80;;;;;;4090061;28;20515;-84
2022/05/28 02:49:45;;;;;;;10.68;1.83;;;8.20;73.80;;;;;;4109060;28;20030;-85
2022/05/28 02:51:45;;;;;;;15.27;1.65;;;8.30;73.70;;;;;;4079119;29;20043;-85
2022/05/28 02:53:51;;;;;;;8.82;1.20;;;8.30;73.70;;;;;;4094037;28;20095;-86
2022/05/28 02:55:52;;;;;;;12.60;1.63;;;8.30;73.60;;;;;;4092676;28;20065;-84
2022/05/28 02:57:52;;;;;;;8.68;1.45;;;8.40;73.60;;;;;;4106374;28;20035;-84
2022/05/28 02:59:56;;;;;;;9.98;1.70;;;8.40;73.50;;;;;;4090957;28;20392;-85
2022/05/28 03:01:58;;;;;;;13.07;2.00;;;8.50;73.50;;;;;;4091982;28;21514;-84
2022/05/28 03:03:59;;;;;;;12.98;1.92;;;8.40;73.30;;;;;;4093570;28;20031;-84
2022/05/28 03:06:00;;;;;;;10.40;1.67;;;8.40;73.20;;;;;;4108520;28;20495;-85
2022/05/28 03:08:00;;;;;;;14.13;1.80;;;8.40;73.10;;;;;;4108423;28;20062;-85
2022/05/28 03:10:01;;;;;;;16.58;2.30;;;8.40;73.10;;;;;;4106528;28;21077;-86
2022/05/28 03:12:02;;;;;;;14.45;1.80;;;8.40;73.10;;;;;;4075291;29;20668;-85
2022/05/28 03:14:07;;;;;;;7.80;1.40;;;8.40;73.00;;;;;;4105964;28;20047;-85
2022/05/28 03:16:08;;;;;;;7.55;1.55;;;8.40;73.10;;;;;;4105624;28;20037;-84
2022/05/28 03:18:08;;;;;;;16.52;1.88;;;8.50;73.20;;;;;;4086451;28;20058;-84
2022/05/28 03:20:09;;;;;;;11.45;1.73;;;8.50;73.30;;;;;;4091707;28;20028;-86
2022/05/28 03:22:10;;;;;;;19.08;2.40;;;8.50;73.30;;;;;;4107269;28;20031;-83
2022/05/28 03:24:11;;;;;;;10.00;1.88;;;8.50;73.30;;;;;;4102700;28;20027;-84
2022/05/28 03:26:12;;;;;;;15.27;2.20;;;8.50;73.30;;;;;;4103642;28;20038;-84
2022/05/28 03:28:13;;;;;;;11.38;1.65;;;8.60;73.40;;;;;;4088430;28;20035;-84
2022/05/28 03:30:14;;;;;;;12.73;2.15;;;8.60;73.30;;;;;;4092089;28;20109;-83
2022/05/28 03:32:15;;;;;;;16.65;2.33;;;8.60;73.30;;;;;;4105933;28;20135;-85
2022/05/28 03:34:16;;;;;;;22.45;2.08;;;8.60;73.20;;;;;;4088180;28;20125;-85
2022/05/28 03:36:19;;;;;;;21.27;2.15;;;8.60;73.10;;;;;;4084468;28;20050;-85
2022/05/28 03:38:20;;;;;;;14.65;2.33;;;8.70;73.00;;;;;;4080709;28;20027;-84
2022/05/28 03:40:20;;;;;;;14.65;1.75;;;8.60;72.60;;;;;;4084824;28;20028;-84
2022/05/28 03:42:21;;;;;;;18.88;1.98;;;8.70;72.60;;;;;;4107682;28;20034;-84
2022/05/28 03:44:22;;;;;;;7.82;1.73;;;8.80;72.70;;;;;;4092681;28;20435;-84
2022/05/28 03:46:32;;;;;;;9.52;1.63;;;8.80;72.40;;;;;;4108848;28;20109;-85
2022/05/28 03:48:33;;;;;;;17.48;1.85;;;8.80;72.20;;;;;;4086617;28;20157;-84
2022/05/28 03:50:34;;;;;;;16.92;2.33;;;8.80;72.00;;;;;;4103450;28;20023;-85
2022/05/28 03:52:34;;;;;;;13.77;1.98;;;8.90;71.70;;;;;;4108629;28;20033;-84
2022/05/28 03:54:35;;;;;;;13.35;2.15;;;8.90;71.60;;;;;;4074337;28;20070;-83
2022/05/28 03:56:38;;;;;;;12.88;2.10;;;9.00;71.50;;;;;;4110310;28;20047;-85
2022/05/28 03:58:39;;;;;;;19.65;2.25;;;8.90;71.20;;;;;;4104046;28;20031;-86
2022/05/28 04:00:42;;;;;;;11.27;1.90;;;9.00;71.30;;;;;;4108549;28;20031;-86
2022/05/28 04:02:45;;;;;;;11.45;2.28;;;9.00;70.90;;;;;;4090126;28;20028;-85
2022/05/28 04:04:57;;;;;;;10.88;1.80;;;9.00;70.60;;;;;;4090310;28;20054;-85
2022/05/28 04:07:00;;;;;;;13.00;1.73;;;9.00;70.40;;;;;;4100342;28;20070;-86
2022/05/28 04:09:02;;;;;;;14.00;2.15;;;9.10;70.30;;;;;;4107002;28;20686;-86
2022/05/28 04:11:03;;;;;;;13.77;2.05;;;9.10;70.00;;;;;;4106079;28;20038;-87
2022/05/28 04:13:03;;;;;;;11.15;2.05;;;9.10;70.00;;;;;;4103841;28;20031;-85
2022/05/28 04:15:07;;;;;;;11.47;1.90;;;9.10;69.90;;;;;;4093137;28;20035;-84
2022/05/28 04:17:10;;;;;;;12.80;1.75;;;9.20;69.90;;;;;;4091293;28;20298;-84
2022/05/28 04:19:11;;;;;;;16.13;1.80;;;9.20;69.90;;;;;;4104813;28;20055;-85
2022/05/28 04:21:12;;;;;;;29.27;2.10;;;9.30;69.90;;;;;;4089866;28;20050;-87
2022/05/28 04:23:21;;;;;;;13.13;2.05;;;9.20;69.90;;;;;;4077089;29;20051;-86
2022/05/28 04:25:42;;;;;;;19.58;2.70;;;9.30;69.90;;;;;;4104628;28;20039;-85
2022/05/28 04:28:03;;;;;;;16.75;2.13;;;9.30;69.80;;;;;;4093236;28;21599;-86
2022/05/28 04:30:24;;;;;;;16.98;2.50;;;9.30;69.80;;;;;;4093234;28;20050;-85
2022/05/28 04:32:47;;;;;;;15.10;2.47;;;9.30;70.50;;;;;;4104742;28;20047;-84
2022/05/28 04:35:09;;;;;;;13.93;2.33;;;9.40;69.70;;;;;;4103061;28;20379;-84
2022/05/28 04:37:29;;;;;;;16.45;3.17;;;9.40;69.50;;;;;;4104258;28;20356;-86
2022/05/28 04:39:50;;;;;;;16.83;2.28;;;9.40;69.40;;;;;;4109343;28;20034;-85
2022/05/28 04:42:10;;;;;;;16.35;2.10;;;9.50;69.40;;;;;;4108287;28;20434;-85
2022/05/28 04:44:31;;;;;;;18.63;2.28;;;9.50;69.40;;;;;;4103702;28;20110;-85
2022/05/28 04:46:32;;;;;;;17.90;2.38;;;9.50;69.30;;;;;;4093482;28;20043;-87
2022/05/28 04:48:33;;;;;;;23.77;3.67;;;9.50;69.00;;;;;;4092589;28;20030;-85
2022/05/28 04:50:34;;;;;;;25.67;2.75;;;9.40;69.20;;;;;;4106231;28;20023;-83
2022/05/28 04:52:35;;;;;;;19.90;2.55;;;9.50;69.20;;;;;;4108419;28;20041;-85
2022/05/28 04:54:36;;;;;;;14.75;2.53;;;9.60;69.30;;;;;;4107110;28;20558;-83
2022/05/28 04:56:37;;;;;;;22.20;2.58;;;9.60;69.50;;;;;;4106220;28;20031;-85
2022/05/28 04:58:38;;;;;;;17.92;2.40;;;9.60;69.60;;;;;;4078096;29;21411;-85
2022/05/28 05:00:40;;;;;;;19.67;2.88;;;9.60;69.60;;;;;;4093617;28;20059;-85
2022/05/28 05:02:41;;;;;;;15.50;3.17;;;9.70;69.40;;;;;;4106653;28;20031;-85
2022/05/28 05:04:43;;;;;;;22.58;2.83;;;9.80;69.20;;;;;;4084850;28;20118;-86
2022/05/28 05:06:44;;;;;;;21.27;3.15;;;9.80;69.20;;;;;;4094535;28;20039;-84
2022/05/28 05:08:45;;;;;;;16.52;2.30;;;9.90;69.10;;;;;;4110407;28;20046;-85
2022/05/28 05:10:48;;;;;;;23.85;2.72;;;9.90;69.20;;;;;;4086595;28;20039;-84
2022/05/28 05:12:49;;;;;;;20.08;2.85;;;10.00;69.40;;;;;;4102278;28;20026;-86
2022/05/28 05:14:49;;;;;;;26.77;3.67;;;10.10;68.80;;;;;;4109568;28;20561;-85
2022/05/28 05:16:50;;;;;;;21.63;3.55;;;10.10;68.50;;;;;;4089026;28;20038;-85
2022/05/28 05:18:51;;;;;;;21.65;3.30;;;10.20;67.90;;;;;;4101826;28;20062;-83
2022/05/28 05:20:51;;;;;;;18.63;2.72;;;10.20;68.50;;;;;;4083363;28;20404;-85
2022/05/28 05:22:55;;;;;;;23.65;2.92;;;10.20;67.30;;;;;;4105758;28;20027;-84
2022/05/28 05:25:16;;;;;;;23.38;3.70;;;10.20;67.10;;;;;;4108630;28;20026;-85
2022/05/28 05:27:37;;;;;;;18.27;2.90;;;10.30;67.00;;;;;;4103658;28;20461;-84
2022/05/28 05:29:39;;;;;;;19.00;3.00;;;10.20;66.50;;;;;;4105739;28;20027;-84
2022/05/28 05:32:04;;;;;;;19.42;3.42;;;10.30;66.60;;;;;;4092252;28;20034;-86
2022/05/28 05:34:25;;;;;;;23.30;2.92;;;10.20;66.60;;;;;;4107192;28;20038;-82
2022/05/28 05:36:49;;;;;;;15.00;2.70;;;10.20;66.40;;;;;;4108880;28;20499;-85
2022/05/28 05:39:10;;;;;;;;;;;10.30;66.40;;;;;;4108468;28;20035;-85
2022/05/28 05:41:31;;;;;;;31.90;3.55;;;10.40;65.90;;;;;;4107830;28;20393;-85
2022/05/28 05:43:51;;;;;;;18.48;2.30;;;10.40;66.00;;;;;;4102008;28;20443;-86
2022/05/28 05:46:13;;;;;;;18.98;2.35;;;10.40;65.70;;;;;;4108786;28;20557;-85
2022/05/28 05:48:34;;;;;;;20.15;2.72;;;10.40;66.20;;;;;;4095206;28;20086;-86
2022/05/28 05:50:55;;;;;;;14.20;2.30;;;10.50;65.70;;;;;;4108502;28;20069;-84
2022/05/28 05:53:16;;;;;;;18.45;2.47;;;10.50;65.80;;;;;;4109017;28;20028;-85
2022/05/28 05:55:37;;;;;;;17.35;2.65;;;10.60;65.20;;;;;;4093660;28;20039;-85
2022/05/28 05:57:57;;;;;;;18.00;2.45;;;10.70;65.10;;;;;;4104442;28;20083;-85
2022/05/28 06:00:18;;;;;;;22.77;2.85;;;10.70;64.50;;;;;;4105238;28;20121;-85
2022/05/28 06:02:39;;;;;;;19.33;2.42;;;10.70;64.50;;;;;;4092793;28;21030;-85
2022/05/28 06:04:40;;;;;;;14.57;2.67;;;10.80;64.50;;;;;;4101791;28;20023;-84
2022/05/28 06:06:41;;;;;;;19.27;2.90;;;10.70;63.90;;;;;;4093208;28;20054;-85
2022/05/28 06:08:42;;;;;;;21.40;2.67;;;10.80;64.70;;;;;;4100677;28;20061;-86
2022/05/28 06:10:44;;;;;;;15.75;2.28;;;10.70;63.60;;;;;;4101319;28;20038;-84
2022/05/28 06:12:47;;;;;;;25.00;2.72;;;10.80;64.20;;;;;;4091410;28;20055;-84
2022/05/28 06:14:48;;;;;;;23.70;3.10;;;10.80;64.20;;;;;;4105371;28;20031;-85
2022/05/28 06:16:50;;;;;;;28.80;3.15;;;10.90;64.20;;;;;;4104539;28;20050;-84
2022/05/28 06:19:20;;;;;;;21.58;3.25;;;10.90;63.70;;;;;;4113085;28;20041;-85
2022/05/28 06:21:21;;;;;;;16.38;2.90;;;10.80;63.20;;;;;;4104506;28;20522;-83
2022/05/28 06:23:22;;;;;;;18.70;2.25;;;10.90;63.70;;;;;;4093848;28;20065;-87
2022/05/28 06:25:23;;;;;;;16.35;2.80;;;10.80;63.30;;;;;;4100838;28;20039;-83
2022/05/28 06:27:27;;;;;;;12.85;1.95;;;10.80;63.60;;;;;;4105605;28;20050;-86
2022/05/28 06:29:30;;;;;;;13.30;2.38;;;10.90;63.60;;;;;;4112830;28;20037;-86
2022/05/28 06:31:44;;;;;;;11.63;1.90;;;10.90;63.50;;;;;;4109944;28;20085;-85
2022/05/28 06:33:45;;;;;;;18.05;2.60;;;10.90;63.70;;;;;;4092706;28;20086;-83
2022/05/28 06:35:45;;;;;;;14.77;2.28;;;10.90;63.80;;;;;;4090256;28;20120;-85
2022/05/28 06:37:49;;;;;;;13.85;2.63;;;11.00;64.40;;;;;;4108031;28;20039;-86
2022/05/28 06:40:15;;;;;;;;;;;11.00;64.80;;;;;;4106146;28;20114;-84
2022/05/28 06:42:16;;;;;;;28.77;2.88;;;11.10;64.90;;;;;;4106686;28;19918;-84
2022/05/28 06:45:14;;;;;;;21.08;2.90;;;11.00;64.60;;;;;;4096447;28;20034;-85
2022/05/28 06:47:41;;;;;;;14.05;2.65;;;11.10;64.60;;;;;;4048591;28;20131;-84
2022/05/28 06:57:05;;;;;;;15.45;2.40;;;11.20;63.40;;;;;;4023186;29;20128;-85
2022/05/28 06:59:09;;;;;;;19.65;2.33;;;11.10;62.90;;;;;;4035897;28;20045;-88
2022/05/28 07:01:11;;;;;;;26.95;2.70;;;11.10;63.40;;;;;;4099282;28;20039;-87
2022/05/28 07:03:17;;;;;;;23.55;2.78;;;11.10;63.90;;;;;;4073405;29;20451;-87
2022/05/28 07:05:18;;;;;;;16.48;2.55;;;11.10;63.70;;;;;;4106962;28;20027;-86
2022/05/28 07:08:13;;;;;;;24.25;2.83;;;11.10;64.10;;;;;;4107336;28;20045;-85
2022/05/28 07:10:13;;;;;;;18.98;3.08;;;11.10;64.60;;;;;;4078180;28;20518;-86
2022/05/28 07:12:14;;;;;;;19.63;3.05;;;11.10;64.90;;;;;;4105547;28;21795;-86
2022/05/28 07:14:18;;;;;;;25.08;2.80;;;11.10;64.40;;;;;;4106263;28;20034;-86
2022/05/28 07:16:19;;;;;;;20.20;3.03;;;11.10;64.80;;;;;;4075093;28;20067;-83
2022/05/28 07:18:20;;;;;;;17.15;2.40;;;11.20;65.40;;;;;;4079733;29;20566;-85
2022/05/28 07:20:21;;;;;;;13.93;2.33;;;11.20;65.40;;;;;;4094374;28;20047;-89
2022/05/28 07:22:22;;;;;;;23.67;3.17;;;11.20;65.30;;;;;;4111115;28;20031;-85
2022/05/28 07:24:44;;;;;;;20.70;2.65;;;11.30;65.20;;;;;;4110020;28;20457;-87
2022/05/28 07:27:03;;;;;;;22.00;2.80;;;11.30;65.00;;;;;;4107289;28;20067;-85
2022/05/28 07:29:04;;;;;;;23.17;2.95;;;11.30;64.90;;;;;;4091608;28;20042;-85
2022/05/28 07:31:08;;;;;;;24.58;3.08;;;11.40;65.20;;;;;;4111584;28;20030;-84
2022/05/28 07:33:09;;;;;;;19.70;3.28;;;11.40;64.10;;;;;;4094190;28;20066;-86
2022/05/28 07:35:11;;;;;;;13.95;2.78;;;11.50;63.50;;;;;;4095244;28;20039;-87
2022/05/28 07:37:12;;;;;;;22.20;3.38;;;11.40;63.40;;;;;;4105710;28;20039;-87
2022/05/28 07:39:15;;;;;;;15.82;2.40;;;11.50;63.80;;;;;;4093843;28;20027;-86
2022/05/28 07:44:43;;;;;;;19.30;3.05;;;11.50;63.30;;;;;;4108738;28;20034;-86
2022/05/28 07:46:43;;;;;;;19.17;2.67;;;11.50;63.20;;;;;;4109070;28;20050;-86
2022/05/28 07:48:45;;;;;;;15.27;2.08;;;11.60;63.10;;;;;;4102891;28;20430;-85
2022/05/28 07:50:55;;;;;;;17.67;2.55;;;11.50;62.80;;;;;;4076471;29;20853;-85
2022/05/28 07:52:57;;;;;;;17.42;2.72;;;11.50;62.60;;;;;;4093461;28;20443;-86
2022/05/28 07:55:19;;;;;;;25.88;3.45;;;11.50;62.80;;;;;;4099468;28;20034;-89
2022/05/28 07:57:20;;;;;;;14.57;2.85;;;11.60;63.20;;;;;;4106829;28;20853;-88
2022/05/28 07:59:42;;;;;;;25.60;2.75;;;11.50;62.70;;;;;;4090892;28;20050;-85
2022/05/28 08:02:37;;;;;;;21.15;3.10;;;11.50;62.40;;;;;;4068817;29;20055;-85
2022/05/28 08:04:57;;;;;;;17.10;2.35;;;11.50;63.20;;;;;;4037503;29;20041;-86
2022/05/28 08:06:58;;;;;;;30.30;3.47;;;11.50;63.70;;;;;;4094047;28;20526;-84
2022/05/28 08:09:22;;;;;;;17.40;2.67;;;11.60;63.50;;;;;;4105469;28;20062;-85
2022/05/28 08:11:33;;;;;;;17.73;2.97;;;11.60;63.70;;;;;;4091107;28;20040;-87
2022/05/28 08:14:00;;;;;;;20.35;3.22;;;11.70;63.80;;;;;;4107589;28;20039;-88
2022/05/28 08:16:43;;;;;;;22.40;3.03;;;11.70;64.20;;;;;;4106576;28;20035;-84
2022/05/28 08:19:07;;;;;;;16.35;2.65;;;11.80;63.60;;;;;;4102562;28;20416;-86
2022/05/28 08:24:10;;;;;;;23.23;2.97;;;11.90;62.80;;;;;;4107544;28;20137;-85
2022/05/28 08:26:31;;;;;;;16.15;2.60;;;11.90;63.10;;;;;;4108133;28;20042;-87
2022/05/28 08:28:56;;;;;;;18.55;2.55;;;11.90;62.60;;;;;;4100575;28;20062;-86
2022/05/28 08:31:18;;;;;;;18.40;2.65;;;12.00;62.10;;;;;;4092695;28;20096;-85
2022/05/28 08:33:50;;;;;;;14.32;2.78;;;12.00;60.80;;;;;;4107928;28;20503;-87
2022/05/28 08:35:56;;;;;;;27.25;2.83;;;12.10;61.10;;;;;;4092649;28;20031;-89
2022/05/28 08:38:23;;;;;;;19.42;2.40;;;12.00;60.70;;;;;;4092970;28;20471;-87
2022/05/28 08:40:54;;;;;;;15.60;2.55;;;12.10;60.90;;;;;;4091200;28;20023;-87
2022/05/28 08:43:17;;;;;;;17.90;2.47;;;12.10;60.80;;;;;;4094366;28;20130;-85
2022/05/28 08:45:38;;;;;;;13.02;2.05;;;12.20;60.90;;;;;;4092496;28;20478;-85
2022/05/28 08:48:01;;;;;;;14.40;2.42;;;12.20;60.90;;;;;;4108343;28;20035;-85
2022/05/28 08:50:07;;;;;;;18.40;2.25;;;12.20;60.30;;;;;;4088205;28;20039;-87
2022/05/28 08:52:29;;;;;;;11.00;1.90;;;12.30;60.00;;;;;;4109973;28;20027;-85
2022/05/28 08:54:56;;;;;;;14.20;2.50;;;12.30;60.50;;;;;;4090423;28;20023;-85
2022/05/28 08:57:13;;;;;;;20.70;2.50;;;12.30;59.40;;;;;;4105601;28;20038;-85
2022/05/28 08:59:37;;;;;;;14.00;2.50;;;12.20;58.90;;;;;;4084494;28;20042;-87
2022/05/28 09:01:44;;;;;;;14.77;2.25;;;12.20;58.90;;;;;;4105274;28;20146;-86
2022/05/28 09:03:58;;;;;;;18.58;2.47;;;12.20;58.80;;;;;;4078634;28;20082;-86
2022/05/28 09:06:07;;;;;;;22.73;2.67;;;12.20;59.20;;;;;;4083062;28;20038;-85
2022/05/28 09:08:25;;;;;;;;;;;;;;;;;;;;;
2022/05/28 09:10:43;;;;;;;15.52;2.15;;;12.10;60.00;;;;;;4085254;28;20035;-85
2022/05/28 09:13:22;;;;;;;13.70;2.28;;;12.20;59.90;;;;;;4102984;28;20026;-88
2022/05/28 09:15:23;;;;;;;16.15;2.92;;;12.20;60.30;;;;;;4090255;28;20039;-85
2022/05/28 09:17:38;;;;;;;17.48;2.13;;;12.20;60.70;;;;;;4107413;28;20031;-87
2022/05/28 09:19:44;;;;;;;14.05;2.60;;;12.20;60.40;;;;;;4090085;28;20079;-86
2022/05/28 09:21:48;;;;;;;14.60;2.85;;;12.20;60.80;;;;;;4096639;28;20053;-88
2022/05/28 09:24:06;;;;;;;13.85;2.30;;;12.30;59.90;;;;;;4097227;28;20080;-86
2022/05/28 09:26:30;;;;;;;13.13;2.00;;;12.30;59.50;;;;;;4087439;28;20118;-85
2022/05/28 09:29:05;;;;;;;14.55;1.85;;;12.30;59.40;;;;;;4088749;28;20130;-86
2022/05/28 09:31:43;;;;;;;15.13;2.08;;;12.40;60.00;;;;;;4102274;28;20026;-84
2022/05/28 09:34:18;;;;;;;13.30;2.35;;;12.40;59.50;;;;;;4089076;28;20019;-87
2022/05/28 09:36:31;;;;;;;16.75;1.77;;;12.40;59.40;;;;;;4103712;28;20029;-86
2022/05/28 09:39:01;;;;;;;11.98;2.10;;;12.40;59.60;;;;;;4088571;28;20070;-86
2022/05/28 09:44:25;;;;;;;10.63;1.63;;;12.40;60.20;;;;;;4091672;28;20027;-86
2022/05/28 09:46:52;;;;;;;10.27;1.67;;;12.40;60.30;;;;;;4099932;28;20496;-87
2022/05/28 09:49:23;;;;;;;14.98;1.80;;;12.40;60.00;;;;;;4089304;28;20047;-87
2022/05/28 09:52:22;;;;;;;19.30;2.35;;;12.40;59.90;;;;;;4091929;28;20082;-86
2022/05/28 09:54:43;;;;;;;13.98;1.98;;;12.40;59.60;;;;;;4053198;29;20036;-87
2022/05/28 09:57:24;;;;;;;18.27;2.00;;;12.50;59.70;;;;;;4098087;28;20043;-88
2022/05/28 09:59:32;;;;;;;13.85;2.10;;;12.40;59.30;;;;;;4088028;28;20046;-86
2022/05/28 10:01:56;;;;;;;16.17;1.98;;;12.50;59.80;;;;;;4101243;28;22092;-86
2022/05/28 10:06:28;;;;;;;13.80;2.25;;;12.60;60.00;;;;;;4104710;28;20191;-87
2022/05/28 10:08:31;;;;;;;14.85;2.35;;;12.70;60.90;;;;;;4086659;28;20034;-85
2022/05/28 10:10:35;;;;;;;14.65;2.45;;;12.80;61.00;;;;;;4085982;28;20310;-87
2022/05/28 10:12:44;;;;;;;13.75;2.63;;;12.90;60.30;;;;;;4100655;28;20026;-86
2022/05/28 10:15:20;;;;;;;9.80;1.85;;;13.00;60.10;;;;;;4074286;29;20055;-85
2022/05/28 10:17:25;;;;;;;16.63;1.95;;;13.00;59.30;;;;;;4058088;29;20054;-85
2022/05/28 10:19:42;;;;;;;12.45;2.15;;;13.00;59.10;;;;;;4104851;28;20463;-86
2022/05/28 10:21:50;;;;;;;16.98;2.38;;;13.10;58.80;;;;;;4089449;28;20032;-88
2022/05/28 10:23:57;;;;;;;16.63;2.13;;;13.20;58.80;;;;;;4103303;28;20030;-87
2022/05/28 10:26:00;;;;;;;18.08;2.10;;;13.20;58.70;;;;;;4094093;28;20023;-86
2022/05/28 10:28:01;;;;;;;18.65;2.65;;;13.20;58.70;;;;;;4112663;28;20117;-86
2022/05/28 10:30:08;;;;;;;13.38;2.47;;;13.20;58.30;;;;;;4076090;29;20075;-87
2022/05/28 10:32:24;;;;;;;18.80;2.10;;;13.20;58.90;;;;;;4103810;28;20071;-87
2022/05/28 10:34:33;;;;;;;17.38;2.50;;;13.20;58.80;;;;;;4108352;28;20030;-87
2022/05/28 10:36:36;;;;;;;12.93;2.30;;;13.20;58.80;;;;;;4104389;28;20069;-86
2022/05/28 10:38:46;;;;;;;13.02;2.15;;;13.10;58.70;;;;;;4077981;29;20032;-88
2022/05/28 10:41:02;;;;;;;18.70;2.28;;;13.10;57.90;;;;;;4102309;28;20037;-86
2022/05/28 10:43:12;;;;;;;22.27;2.72;;;13.10;57.70;;;;;;4107917;28;20511;-87
2022/05/28 10:45:20;;;;;;;12.77;2.10;;;13.10;58.10;;;;;;4090165;28;20035;-88
2022/05/28 10:47:50;;;;;;;20.42;2.33;;;13.20;58.80;;;;;;4099962;28;20772;-86
2022/05/28 10:50:56;;;;;;;9.13;2.17;;;13.10;58.40;;;;;;4107465;28;20023;-86
2022/05/28 10:53:16;;;;;;;;;;;13.20;58.60;;;;;;4106533;28;20042;-88
2022/05/28 10:55:41;;;;;;;17.38;1.95;;;13.20;58.70;;;;;;4107786;28;19914;-87
2022/05/28 10:58:13;;;;;;;19.80;3.30;;;13.20;58.30;;;;;;4094029;28;20423;-86
2022/05/28 11:00:58;;;;;;;16.50;2.67;;;13.30;58.50;;;;;;4094913;28;20031;-86
2022/05/28 11:03:30;;;;;;;14.15;2.20;;;13.20;58.00;;;;;;4104661;28;20031;-87
2022/05/28 11:05:51;;;;;;;12.25;2.00;;;13.30;58.70;;;;;;4108838;28;20581;-86
2022/05/28 11:08:17;;;;;;;12.45;2.17;;;13.20;58.40;;;;;;4087168;28;20908;-85
2022/05/28 11:11:18;;;;;;;20.83;2.35;;;13.30;58.10;;;;;;4108085;28;20495;-88
2022/05/28 11:14:07;;;;;;;15.80;2.47;;;13.30;57.50;;;;;;4104618;28;20046;-87
2022/05/28 11:16:47;;;;;;;17.52;1.98;;;13.30;58.10;;;;;;4108042;28;20494;-87
2022/05/28 11:19:29;;;;;;;17.00;2.13;;;13.30;58.00;;;;;;4093855;28;20122;-85
2022/05/28 11:22:19;;;;;;;16.60;2.67;;;13.40;58.60;;;;;;4092031;28;20031;-87
2022/05/28 11:24:46;;;;;;;21.75;2.53;;;13.40;58.60;;;;;;4114281;28;20035;-85
2022/05/28 11:27:25;;;;;;;16.42;3.10;;;13.30;58.20;;;;;;4118521;28;20169;-87
2022/05/28 11:30:08;;;;;;;26.75;2.95;;;13.30;57.80;;;;;;4092288;28;20507;-86
2022/05/28 11:32:51;;;;;;;18.15;2.30;;;13.30;58.40;;;;;;4105650;28;20047;-87
2022/05/28 11:35:05;;;;;;;19.85;2.47;;;13.20;58.20;;;;;;4108318;28;20034;-86
2022/05/28 11:37:11;;;;;;;;;;;13.20;58.50;;;;;;4092250;28;20094;-86
2022/05/28 11:39:28;;;;;;;18.42;2.30;;;13.30;58.70;;;;;;4102218;28;19996;-86
2022/05/28 11:41:39;;;;;;;20.10;3.13;;;13.30;58.90;;;;;;4106969;28;20081;-86
2022/05/28 11:44:07;;;;;;;19.63;2.45;;;13.30;59.10;;;;;;4089278;28;21028;-88
2022/05/28 11:46:40;;;;;;;14.68;2.53;;;13.30;58.80;;;;;;4089822;28;20019;-87
2022/05/28 11:51:47;;;;;;;11.15;2.35;;;13.20;58.80;;;;;;4105272;28;20033;-87
2022/05/28 11:54:18;;;;;;;18.52;2.58;;;13.20;58.80;;;;;;4091785;28;20062;-85